createdAt,value
2023-04-24T00:00:11.006Z,8.85
2023-04-24T00:02:40.985Z,10.40
2023-04-24T00:05:10.126Z,8.77
2023-04-24T00:07:37.848Z,8.15
2023-04-24T00:10:06.066Z,8.60
2023-04-24T00:12:33.655Z,8.02
2023-04-24T00:15:01.483Z,9.05
2023-04-24T00:17:29.289Z,8.60
2023-04-24T00:19:59.461Z,9.38
2023-04-24T00:22:28.244Z,9.02
2023-04-24T00:24:56.335Z,8.80
2023-04-24T00:27:24.007Z,8.38
2023-04-24T00:29:51.598Z,9.23
2023-04-24T00:32:19.434Z,9.13
2023-04-24T00:34:47.143Z,9.35
2023-04-24T00:37:16.056Z,8.73
2023-04-24T00:39:46.023Z,8.55
2023-04-24T00:42:14.005Z,8.02
2023-04-24T00:44:42.618Z,7.93
2023-04-24T00:47:10.392Z,7.00
2023-04-24T00:49:37.977Z,8.10
2023-04-24T00:52:08.514Z,7.50
2023-04-24T00:54:37.774Z,8.55
2023-04-24T00:57:06.152Z,7.07
2023-04-24T00:59:34.103Z,7.90
2023-04-24T01:02:01.870Z,7.82
2023-04-24T01:04:29.718Z,8.18
2023-04-24T01:06:58.222Z,7.43
2023-04-24T01:09:26.886Z,7.70
2023-04-24T01:11:56.026Z,7.13
2023-04-24T01:14:24.504Z,8.32
2023-04-24T01:16:52.089Z,8.25
2023-04-24T01:19:20.894Z,8.38
2023-04-24T01:21:49.577Z,7.70
2023-04-24T01:24:21.324Z,9.02
2023-04-24T01:26:49.042Z,7.72
2023-04-24T01:29:16.694Z,7.22
2023-04-24T01:31:45.099Z,7.10
2023-04-24T01:34:12.870Z,6.60
2023-04-24T01:36:41.184Z,6.97
2023-04-24T01:39:08.908Z,6.22
2023-04-24T01:41:37.879Z,7.22
2023-04-24T01:44:05.645Z,6.47
2023-04-24T01:46:35.122Z,6.28
2023-04-24T01:49:03.186Z,5.30
2023-04-24T01:51:31.065Z,4.80
2023-04-24T01:53:58.704Z,4.95
2023-04-24T01:56:27.413Z,4.40
2023-04-24T01:58:56.858Z,4.10
2023-04-24T02:01:25.987Z,4.50
2023-04-24T02:03:53.738Z,4.97
2023-04-24T02:06:21.319Z,5.05
2023-04-24T02:08:48.879Z,3.53
2023-04-24T02:11:16.466Z,4.03
2023-04-24T02:13:44.006Z,3.15
2023-04-24T02:16:13.043Z,3.00
2023-04-24T02:18:40.628Z,3.00
2023-04-24T02:21:08.337Z,4.95
2023-04-24T02:23:36.803Z,2.70
2023-04-24T02:26:04.556Z,2.58
2023-04-24T02:28:32.103Z,2.40
2023-04-24T02:30:59.831Z,2.67
2023-04-24T02:33:28.723Z,4.70
2023-04-24T02:35:56.438Z,3.05
2023-04-24T02:38:24.143Z,3.55
2023-04-24T02:40:51.721Z,3.67
2023-04-24T02:43:19.323Z,3.35
2023-04-24T02:45:46.888Z,3.30
2023-04-24T02:48:14.552Z,3.88
2023-04-24T02:50:43.732Z,3.92
2023-04-24T02:53:11.329Z,3.15
2023-04-24T02:55:39.014Z,4.00
2023-04-24T02:58:06.875Z,3.50
2023-04-24T03:00:34.942Z,3.92
2023-04-24T03:03:02.658Z,4.07
2023-04-24T03:05:31.725Z,3.03
2023-04-24T03:08:00.581Z,3.13
2023-04-24T03:10:28.388Z,3.25
2023-04-24T03:12:56.590Z,3.05
2023-04-24T03:15:24.148Z,2.78
2023-04-24T03:17:51.815Z,3.42
2023-04-24T03:20:19.696Z,13.60
2023-04-24T03:22:47.573Z,4.97
2023-04-24T03:25:16.472Z,3.10
2023-04-24T03:27:44.024Z,3.80
2023-04-24T03:30:31.864Z,3.90
2023-04-24T03:33:02.228Z,2.72
2023-04-24T03:35:33.519Z,3.22
2023-04-24T03:38:05.194Z,4.55
2023-04-24T03:40:59.329Z,2.75
2023-04-24T03:43:39.087Z,3.85
2023-04-24T03:46:07.938Z,2.72
2023-04-24T03:48:39.563Z,3.65
2023-04-24T03:51:08.631Z,3.70
2023-04-24T03:53:37.939Z,4.22
2023-04-24T03:56:07.029Z,3.20
2023-04-24T03:58:35.337Z,2.22
2023-04-24T04:01:03.578Z,3.13
2023-04-24T04:03:56.249Z,3.10
2023-04-24T04:06:27.418Z,3.35
2023-04-24T04:08:56.454Z,1.70
2023-04-24T04:11:26.793Z,3.90
2023-04-24T04:13:54.355Z,2.47
2023-04-24T04:16:23.224Z,1.70
2023-04-24T04:18:54.813Z,2.50
2023-04-24T04:21:22.444Z,2.20
2023-04-24T04:23:53.627Z,2.90
2023-04-24T04:26:28.996Z,2.08
2023-04-24T04:29:04.158Z,2.22
2023-04-24T04:31:33.042Z,2.53
2023-04-24T04:34:04.690Z,2.25
2023-04-24T04:36:37.573Z,2.00
2023-04-24T04:39:19.520Z,2.22
2023-04-24T04:42:02.019Z,2.00
2023-04-24T04:44:39.435Z,2.20
2023-04-24T04:47:09.790Z,3.08
2023-04-24T04:49:39.438Z,1.65
2023-04-24T04:52:12.433Z,1.85
2023-04-24T04:54:40.101Z,2.13
2023-04-24T04:57:09.068Z,2.08
2023-04-24T04:59:38.098Z,1.70
2023-04-24T05:02:10.464Z,2.25
2023-04-24T05:04:38.512Z,3.67
2023-04-24T05:07:06.609Z,2.17
2023-04-24T05:09:37.067Z,3.70
2023-04-24T05:12:06.850Z,1.75
2023-04-24T05:14:41.401Z,1.77
2023-04-24T05:17:09.389Z,2.22
2023-04-24T05:19:38.848Z,1.73
2023-04-24T05:22:08.053Z,2.47
2023-04-24T05:24:40.836Z,1.67
2023-04-24T05:27:16.098Z,3.13
2023-04-24T05:29:45.355Z,1.60
2023-04-24T05:32:14.697Z,1.98
2023-04-24T05:34:42.944Z,1.83
2023-04-24T05:37:10.994Z,3.30
2023-04-24T05:39:38.780Z,1.48
2023-04-24T05:42:06.560Z,3.25
2023-04-24T05:44:34.154Z,3.08
2023-04-24T05:47:03.116Z,1.40
2023-04-24T05:49:30.693Z,2.20
2023-04-24T05:51:59.179Z,2.95
2023-04-24T05:54:26.836Z,1.85
2023-04-24T05:56:55.446Z,1.70
2023-04-24T05:59:32.577Z,2.58
2023-04-24T06:02:00.279Z,3.38
2023-04-24T06:04:29.504Z,1.73
2023-04-24T06:06:59.877Z,2.55
2023-04-24T06:09:28.033Z,2.03
2023-04-24T06:11:55.747Z,1.42
2023-04-24T06:14:27.115Z,1.60
2023-04-24T06:17:18.023Z,1.60
2023-04-24T06:19:48.419Z,1.80
2023-04-24T06:22:16.115Z,6.47
2023-04-24T06:24:43.672Z,2.33
2023-04-24T06:27:11.473Z,1.58
2023-04-24T06:29:42.314Z,2.67
2023-04-24T06:32:10.107Z,2.13
2023-04-24T06:34:37.926Z,2.42
2023-04-24T06:37:06.885Z,2.53
2023-04-24T06:39:34.414Z,2.47
2023-04-24T06:42:01.978Z,2.10
2023-04-24T06:44:29.622Z,1.73
2023-04-24T06:46:57.499Z,1.77
2023-04-24T06:49:25.345Z,2.78
2023-04-24T06:51:52.939Z,2.80
2023-04-24T06:54:22.078Z,3.58
2023-04-24T06:56:50.697Z,3.03
2023-04-24T06:59:18.348Z,3.95
2023-04-24T07:01:46.352Z,3.53
2023-04-24T07:04:14.222Z,2.72
2023-04-24T07:06:42.337Z,2.70
2023-04-24T07:09:10.591Z,4.53
2023-04-24T07:11:41.564Z,2.50
2023-04-24T07:14:09.727Z,2.47
2023-04-24T07:16:37.606Z,5.50
2023-04-24T07:19:05.254Z,4.50
2023-04-24T07:21:33.187Z,13.60
2023-04-24T07:24:01.019Z,4.22
2023-04-24T07:26:29.059Z,4.95
2023-04-24T07:28:57.978Z,7.43
2023-04-24T07:31:25.583Z,6.05
2023-04-24T07:33:53.184Z,5.60
2023-04-24T07:36:20.911Z,8.20
2023-04-24T07:38:48.658Z,6.07
2023-04-24T07:41:16.595Z,9.82
2023-04-24T07:43:44.274Z,5.43
2023-04-24T07:46:13.547Z,6.45
2023-04-24T07:48:41.188Z,4.97
2023-04-24T07:51:11.063Z,6.35
2023-04-24T07:53:38.731Z,5.13
2023-04-24T07:56:06.812Z,8.15
2023-04-24T07:58:34.395Z,4.22
2023-04-24T08:01:02.054Z,5.78
2023-04-24T08:03:31.211Z,5.03
2023-04-24T08:05:58.982Z,4.70
2023-04-24T08:08:27.114Z,6.55
2023-04-24T08:10:55.869Z,4.65
2023-04-24T08:13:24.098Z,7.38
2023-04-24T08:15:51.804Z,5.10
2023-04-24T08:18:19.406Z,4.97
2023-04-24T08:20:48.305Z,6.72
2023-04-24T08:23:16.101Z,6.65
2023-04-24T08:25:43.729Z,5.90
2023-04-24T08:28:11.691Z,6.43
2023-04-24T08:30:39.898Z,5.80
2023-04-24T08:33:08.192Z,4.82
2023-04-24T08:35:35.825Z,4.90
2023-04-24T08:38:04.804Z,4.78
2023-04-24T08:40:36.478Z,7.50
2023-04-24T08:43:05.428Z,6.82
2023-04-24T08:45:34.839Z,7.60
2023-04-24T08:48:02.767Z,13.00
2023-04-24T08:50:31.223Z,7.13
2023-04-24T08:52:59.725Z,7.00
2023-04-24T08:55:28.832Z,5.68
2023-04-24T08:57:56.894Z,6.05
2023-04-24T09:00:24.501Z,6.38
2023-04-24T09:02:54.891Z,7.80
2023-04-24T09:05:26.344Z,7.97
2023-04-24T09:07:56.992Z,8.02
2023-04-24T09:10:26.008Z,8.88
2023-04-24T09:12:55.983Z,6.60
2023-04-24T09:15:23.694Z,8.30
2023-04-24T09:17:51.571Z,5.68
2023-04-24T09:20:19.412Z,4.95
2023-04-24T09:22:47.141Z,6.25
2023-04-24T09:25:14.939Z,5.57
2023-04-24T09:27:47.277Z,6.28
2023-04-24T09:30:23.634Z,7.97
2023-04-24T09:32:51.308Z,5.28
2023-04-24T09:35:18.877Z,5.50
2023-04-24T09:37:49.694Z,6.80
2023-04-24T09:40:18.981Z,5.72
2023-04-24T09:42:47.887Z,7.07
2023-04-24T09:45:16.800Z,6.30
2023-04-24T09:47:44.973Z,5.57
2023-04-24T09:50:17.278Z,8.65
2023-04-24T09:52:46.827Z,6.95
2023-04-24T09:55:17.802Z,7.07
2023-04-24T09:57:57.000Z,6.45
2023-04-24T10:00:27.960Z,7.47
2023-04-24T10:03:00.287Z,5.90
2023-04-24T10:05:33.405Z,7.65
2023-04-24T10:08:05.325Z,8.98
2023-04-24T10:10:33.722Z,6.88
2023-04-24T10:13:02.149Z,9.70
2023-04-24T10:15:31.844Z,8.70
2023-04-24T10:18:00.791Z,8.80
2023-04-24T10:20:31.539Z,10.55
2023-04-24T10:23:00.108Z,9.65
2023-04-24T10:25:29.123Z,8.93
2023-04-24T10:28:00.316Z,9.23
2023-04-24T10:30:29.948Z,11.30
2023-04-24T10:32:58.951Z,9.18
2023-04-24T10:35:27.781Z,12.93
2023-04-24T10:37:58.851Z,10.73
2023-04-24T10:40:29.378Z,15.50
2023-04-24T10:42:58.963Z,13.27
2023-04-24T10:45:27.441Z,13.23
2023-04-24T10:48:04.373Z,11.15
2023-04-24T10:50:44.978Z,9.70
2023-04-24T10:53:16.713Z,10.52
2023-04-24T10:55:46.688Z,9.43
2023-04-24T10:58:15.720Z,8.32
2023-04-24T11:00:43.442Z,9.07
2023-04-24T11:03:26.960Z,11.60
2023-04-24T11:06:00.412Z,8.27
2023-04-24T11:08:30.366Z,8.50
2023-04-24T11:11:03.555Z,8.63
2023-04-24T11:14:01.018Z,8.35
2023-04-24T11:16:30.859Z,10.93
2023-04-24T11:19:05.008Z,8.23
2023-04-24T11:21:43.767Z,8.27
2023-04-24T11:24:31.957Z,8.27
2023-04-24T11:27:02.587Z,7.50
2023-04-24T11:29:41.752Z,7.88
2023-04-24T11:32:26.698Z,8.52
2023-04-24T11:34:56.756Z,8.02
2023-04-24T11:37:26.077Z,9.82
2023-04-24T11:39:57.882Z,8.23
2023-04-24T11:42:26.499Z,8.30
2023-04-24T11:44:56.330Z,8.10
2023-04-24T11:47:30.714Z,8.00
2023-04-24T11:50:00.807Z,6.43
2023-04-24T11:52:29.498Z,7.22
2023-04-24T11:54:57.453Z,7.93
2023-04-24T11:57:28.813Z,7.25
2023-04-24T11:59:56.767Z,6.97
2023-04-24T12:02:25.730Z,7.15
2023-04-24T12:04:54.814Z,8.57
2023-04-24T12:07:25.362Z,8.52
2023-04-24T12:09:58.789Z,7.65
2023-04-24T12:12:28.281Z,7.15
2023-04-24T12:14:57.700Z,6.80
2023-04-24T12:17:29.016Z,8.13
2023-04-24T12:20:01.017Z,6.88
2023-04-24T12:22:30.021Z,7.55
2023-04-24T12:24:59.173Z,6.15
2023-04-24T12:27:27.112Z,6.28
2023-04-24T12:29:55.480Z,5.75
2023-04-24T12:32:23.138Z,7.70
2023-04-24T12:34:52.006Z,7.78
2023-04-24T12:37:19.645Z,6.72
2023-04-24T12:40:02.344Z,6.07
2023-04-24T12:42:31.280Z,6.45
2023-04-24T12:45:00.932Z,6.90
2023-04-24T12:47:29.632Z,6.97
2023-04-24T12:49:57.269Z,6.03
2023-04-24T12:52:26.696Z,8.45
2023-04-24T12:54:56.267Z,8.15
2023-04-24T12:57:25.864Z,7.78
2023-04-24T12:59:55.486Z,7.00
2023-04-24T13:02:23.479Z,7.97
2023-04-24T13:04:52.096Z,6.35
2023-04-24T13:07:19.946Z,7.85
2023-04-24T13:09:49.485Z,6.90
2023-04-24T13:12:17.420Z,6.72
2023-04-24T13:14:47.253Z,7.60
2023-04-24T13:17:15.401Z,5.82
2023-04-24T13:19:45.166Z,6.30
2023-04-24T13:22:13.844Z,6.15
2023-04-24T13:24:42.421Z,5.05
2023-04-24T13:27:10.512Z,5.40
2023-04-24T13:29:38.529Z,5.35
2023-04-24T13:32:07.985Z,5.43
2023-04-24T13:34:36.585Z,4.82
2023-04-24T13:37:05.255Z,5.72
2023-04-24T13:39:33.441Z,4.50
2023-04-24T13:42:03.229Z,5.20
2023-04-24T13:44:32.155Z,4.88
2023-04-24T13:46:59.994Z,6.30
2023-04-24T13:49:32.008Z,4.95
2023-04-24T13:51:59.905Z,4.47
2023-04-24T13:54:27.692Z,4.40
2023-04-24T13:56:56.074Z,3.50
2023-04-24T13:59:23.732Z,4.28
2023-04-24T14:01:51.488Z,4.32
2023-04-24T14:04:19.354Z,4.90
2023-04-24T14:06:48.657Z,4.70
2023-04-24T14:09:16.349Z,4.38
2023-04-24T14:11:44.078Z,4.70
2023-04-24T14:14:12.453Z,4.07
2023-04-24T14:16:40.232Z,4.70
2023-04-24T14:19:08.200Z,4.82
2023-04-24T14:21:35.946Z,4.05
2023-04-24T14:24:05.099Z,4.68
2023-04-24T14:26:37.791Z,5.43
2023-04-24T14:29:14.101Z,9.02
2023-04-24T14:31:42.296Z,6.82
2023-04-24T14:34:10.356Z,5.28
2023-04-24T14:36:38.110Z,5.40
2023-04-24T14:39:08.119Z,6.60
2023-04-24T14:41:36.991Z,7.10
2023-04-24T14:44:04.876Z,9.90
2023-04-24T14:46:32.744Z,10.60
2023-04-24T14:49:00.838Z,8.43
2023-04-24T14:51:28.791Z,7.90
2023-04-24T14:53:56.432Z,10.32
2023-04-24T14:56:25.394Z,8.80
2023-04-24T14:58:53.270Z,10.20
2023-04-24T15:01:20.922Z,9.50
2023-04-24T15:03:48.908Z,11.43
2023-04-24T15:06:16.828Z,10.27
2023-04-24T15:08:44.594Z,13.63
2023-04-24T15:11:13.080Z,15.18
2023-04-24T15:13:42.169Z,14.18
2023-04-24T15:16:09.773Z,11.75
2023-04-24T15:18:37.546Z,9.85
2023-04-24T15:21:05.149Z,7.78
2023-04-24T15:23:32.964Z,5.93
2023-04-24T15:26:00.856Z,5.47
2023-04-24T15:28:28.502Z,4.50
2023-04-24T15:30:57.387Z,4.03
2023-04-24T15:33:26.802Z,4.60
2023-04-24T15:35:54.363Z,4.72
2023-04-24T15:38:22.224Z,4.47
2023-04-24T15:40:50.371Z,4.00
2023-04-24T15:43:18.026Z,5.28
2023-04-24T15:45:45.744Z,7.70
2023-04-24T15:48:14.817Z,6.93
2023-04-24T15:50:42.483Z,8.25
2023-04-24T15:53:10.141Z,10.55
2023-04-24T15:55:38.197Z,11.80
2023-04-24T15:58:05.913Z,9.85
2023-04-24T16:00:35.484Z,10.07
2023-04-24T16:03:03.390Z,11.82
2023-04-24T16:05:32.530Z,13.93
2023-04-24T16:08:00.297Z,12.07
2023-04-24T16:10:27.938Z,12.10
2023-04-24T16:12:55.847Z,12.13
2023-04-24T16:15:23.775Z,12.32
2023-04-24T16:17:51.597Z,8.70
2023-04-24T16:20:19.268Z,8.52
2023-04-24T16:22:48.163Z,7.72
2023-04-24T16:25:15.997Z,8.30
2023-04-24T16:27:44.025Z,9.15
2023-04-24T16:30:12.481Z,10.05
2023-04-24T16:32:40.098Z,22.20
2023-04-24T16:35:08.228Z,10.40
2023-04-24T16:37:35.927Z,12.23
2023-04-24T16:40:10.471Z,12.80
2023-04-24T16:42:38.879Z,10.77
2023-04-24T16:45:07.866Z,11.80
2023-04-24T16:47:35.815Z,10.40
2023-04-24T16:50:03.574Z,9.60
2023-04-24T16:52:31.222Z,10.98
2023-04-24T16:54:59.634Z,7.78
2023-04-24T16:57:28.673Z,8.30
2023-04-24T16:59:58.943Z,8.88
2023-04-24T17:02:26.624Z,11.65
2023-04-24T17:04:54.430Z,7.95
2023-04-24T17:07:22.150Z,11.07
2023-04-24T17:09:49.847Z,10.68
2023-04-24T17:12:17.546Z,10.05
2023-04-24T17:14:46.587Z,11.35
2023-04-24T17:17:14.890Z,12.07
2023-04-24T17:19:42.506Z,13.77
2023-04-24T17:22:10.097Z,13.20
2023-04-24T17:24:37.705Z,14.25
2023-04-24T17:27:14.497Z,12.88
2023-04-24T17:29:43.539Z,16.30
2023-04-24T17:32:12.776Z,16.60
2023-04-24T17:34:40.662Z,17.30
2023-04-24T17:37:08.291Z,21.88
2023-04-24T17:39:36.027Z,17.33
2023-04-24T17:42:03.674Z,15.93
2023-04-24T17:44:31.338Z,18.90
2023-04-24T17:46:59.051Z,14.13
2023-04-24T17:49:27.932Z,15.20
2023-04-24T17:51:55.468Z,16.38
2023-04-24T17:54:23.490Z,18.33
2023-04-24T17:56:52.830Z,15.02
2023-04-24T17:59:20.550Z,15.65
2023-04-24T18:01:48.159Z,18.45
2023-04-24T18:04:15.919Z,16.45
2023-04-24T18:06:45.317Z,22.40
2023-04-24T18:09:15.609Z,14.85
2023-04-24T18:11:43.569Z,18.23
2023-04-24T18:14:11.238Z,15.85
2023-04-24T18:16:38.977Z,16.27
2023-04-24T18:19:06.551Z,15.80
2023-04-24T18:21:34.336Z,19.27
2023-04-24T18:24:03.280Z,18.38
2023-04-24T18:26:31.133Z,16.73
2023-04-24T18:28:58.738Z,13.43
2023-04-24T18:31:26.498Z,17.23
2023-04-24T18:33:55.336Z,13.30
2023-04-24T18:36:22.854Z,15.02
2023-04-24T18:38:50.737Z,12.52
2023-04-24T18:41:19.794Z,12.43
2023-04-24T18:43:47.715Z,7.78
2023-04-24T18:46:15.372Z,12.85
2023-04-24T18:48:42.994Z,6.43
2023-04-24T18:51:10.830Z,5.45
2023-04-24T18:53:38.415Z,4.70
2023-04-24T18:56:05.993Z,6.35
2023-04-24T18:58:34.916Z,6.75
2023-04-24T19:01:02.802Z,4.32
2023-04-24T19:03:32.423Z,4.63
2023-04-24T19:06:00.149Z,6.40
2023-04-24T19:08:27.687Z,5.07
2023-04-24T19:10:55.412Z,5.20
2023-04-24T19:13:23.037Z,6.15
2023-04-24T19:15:52.001Z,6.80
2023-04-24T19:18:19.504Z,3.80
2023-04-24T19:20:47.091Z,5.05
2023-04-24T19:23:14.783Z,6.88
2023-04-24T19:25:42.284Z,4.05
2023-04-24T19:28:09.883Z,6.03
2023-04-24T19:30:38.321Z,3.33
2023-04-24T19:33:07.680Z,5.13
2023-04-24T19:35:35.917Z,4.03
2023-04-24T19:38:03.536Z,5.50
2023-04-24T19:40:31.106Z,8.13
2023-04-24T19:42:58.675Z,7.15
2023-04-24T19:45:26.241Z,5.30
2023-04-24T19:47:54.627Z,6.30
2023-04-24T19:50:23.696Z,6.13
2023-04-24T19:52:51.196Z,8.23
2023-04-24T19:55:19.141Z,4.68
2023-04-24T19:57:46.774Z,8.25
2023-04-24T20:00:15.336Z,7.00
2023-04-24T20:02:43.141Z,4.90
2023-04-24T20:05:11.771Z,5.43
2023-04-24T20:07:40.898Z,6.43
2023-04-24T20:10:09.516Z,8.02
2023-04-24T20:12:37.104Z,6.20
2023-04-24T20:15:05.663Z,8.23
2023-04-24T20:17:33.250Z,6.82
2023-04-24T20:20:00.869Z,6.32
2023-04-24T20:22:28.606Z,6.00
2023-04-24T20:24:57.503Z,8.95
2023-04-24T20:27:25.098Z,9.57
2023-04-24T20:29:54.510Z,7.60
2023-04-24T20:32:22.257Z,5.93
2023-04-24T20:34:49.935Z,7.85
2023-04-24T20:37:17.497Z,8.20
2023-04-24T20:39:46.240Z,7.07
2023-04-24T20:42:16.615Z,5.07
2023-04-24T20:44:45.523Z,5.97
2023-04-24T20:47:13.202Z,5.55
2023-04-24T20:49:40.828Z,6.25
2023-04-24T20:52:08.447Z,4.82
2023-04-24T20:54:36.071Z,5.38
2023-04-24T20:57:04.401Z,5.97
2023-04-24T20:59:33.334Z,5.95
2023-04-24T21:02:00.933Z,5.15
2023-04-24T21:04:28.493Z,6.78
2023-04-24T21:06:56.166Z,3.92
2023-04-24T21:09:23.766Z,10.48
2023-04-24T21:11:51.508Z,7.25
2023-04-24T21:14:18.998Z,7.35
2023-04-24T21:16:48.075Z,5.88
2023-04-24T21:19:16.201Z,6.82
2023-04-24T21:21:43.747Z,6.63
2023-04-24T21:24:11.291Z,8.00
2023-04-24T21:26:39.037Z,4.78
2023-04-24T21:29:06.774Z,5.07
2023-04-24T21:31:34.569Z,7.55
2023-04-24T21:34:03.487Z,8.98
2023-04-24T21:36:32.724Z,6.82
2023-04-24T21:39:00.603Z,5.85
2023-04-24T21:41:28.180Z,6.72
2023-04-24T21:43:56.227Z,4.75
2023-04-24T21:46:24.141Z,5.63
2023-04-24T21:48:51.729Z,7.13
2023-04-24T21:51:20.717Z,10.20
2023-04-24T21:53:48.688Z,9.02
2023-04-24T21:56:16.598Z,6.70
2023-04-24T21:58:44.350Z,5.30
2023-04-24T22:01:12.211Z,6.28
2023-04-24T22:03:40.078Z,7.18
2023-04-24T22:06:08.040Z,5.53
2023-04-24T22:08:36.951Z,5.88
2023-04-24T22:11:08.954Z,5.50
2023-04-24T22:13:41.706Z,8.25
2023-04-24T22:16:09.783Z,5.60
2023-04-24T22:18:46.509Z,7.22
2023-04-24T22:21:14.934Z,7.43
2023-04-24T22:23:44.015Z,5.63
2023-04-24T22:26:11.779Z,7.90
2023-04-24T22:28:39.421Z,7.65
2023-04-24T22:31:07.097Z,9.90
2023-04-24T22:33:34.979Z,6.20
2023-04-24T22:36:02.649Z,6.15
2023-04-24T22:38:30.236Z,10.30
2023-04-24T22:40:59.194Z,6.00
2023-04-24T22:43:27.812Z,12.27
2023-04-24T22:45:55.395Z,5.57
2023-04-24T22:48:23.232Z,6.05
2023-04-24T22:50:52.267Z,9.55
2023-04-24T22:53:20.065Z,8.43
2023-04-24T22:55:47.726Z,7.65
2023-04-24T22:58:16.706Z,7.70
2023-04-24T23:00:44.974Z,9.93
2023-04-24T23:03:12.695Z,7.72
2023-04-24T23:05:40.838Z,7.82
2023-04-24T23:08:08.361Z,7.80
2023-04-24T23:10:35.994Z,6.93
2023-04-24T23:13:03.588Z,7.07
2023-04-24T23:15:32.514Z,7.28
2023-04-24T23:18:00.029Z,5.32
2023-04-24T23:20:27.675Z,8.57
2023-04-24T23:22:55.444Z,9.98
2023-04-24T23:25:23.011Z,7.47
2023-04-24T23:27:50.564Z,4.82
2023-04-24T23:30:18.118Z,7.47
2023-04-24T23:32:47.054Z,5.25
2023-04-24T23:35:15.059Z,6.70
2023-04-24T23:37:42.790Z,6.63
2023-04-24T23:40:11.033Z,9.60
2023-04-24T23:42:38.783Z,7.85
2023-04-24T23:45:07.715Z,5.35
2023-04-24T23:47:35.317Z,9.45
2023-04-24T23:50:04.722Z,7.65
2023-04-24T23:52:32.341Z,7.55
2023-04-24T23:55:00.000Z,6.57
2023-04-24T23:57:27.584Z,7.75
2023-04-24T23:59:55.138Z,10.50
